Hampton Bridge — 9HA3280 — position and weather

sailwx.info

Track history (hours):
 
Tides and Currents Weather Stations Pressure Air Temp Water Temp Dewpoint Dewpoint Depression Visibility Wind Speed Wind Dir Waves Ship Positions

Hampton Bridge

Last reported at 2018-May-16 21:34 UTC. Time now 2018-May-25 18:55 UTC.
Position N 19°60' E 066°13'.
Warning: this ship's position is 8 days out of date.

Length 223 m; draft 12.1 m.

Type: Cargo ship. MMSI: 229373000.

Date/timePositionNaut miles runAvg speedWind from/ knotsBaromVisibWave heightAir tempDewpointWater temp
2018-May-16 21:34N 19°60' E 066°13'211.3
2018-May-16 21:25N 19°59' E 066°14'1711.4
2018-May-16 19:58N 19°47' E 066°27'611.4
2018-May-16 19:25N 19°43' E 066°32'611.5
2018-May-16 18:53N 19°38' E 066°36'511.8
2018-May-16 18:28N 19°35' E 066°40'1012.0
2018-May-16 17:40N 19°28' E 066°47'311.8
2018-May-16 17:22N 19°25' E 066°49'2311.7
2018-May-16 15:25N 19°09' E 067°06'611.6
2018-May-16 14:56N 19°05' E 067°11'511.6
2018-May-16 14:27N 19°02' E 067°15'611.7
2018-May-16 13:58N 18°58' E 067°19'611.7
2018-May-16 13:25N 18°53' E 067°24'911.6
2018-May-16 12:38N 18°47' E 067°31'111.4
2018-May-16 12:30N 18°45' E 067°32'6311.3
2018-May-16 06:56N 18°01' E 068°19'511.0
2018-May-16 06:29N 17°58' E 068°22'610.9
2018-May-16 05:54N 17°53' E 068°27'410.8
2018-May-16 05:29N 17°50' E 068°30'510.9
2018-May-16 05:00N 17°46' E 068°34'510.7
2018-May-16 04:30N 17°42' E 068°38'610.7
2018-May-16 03:54N 17°38' E 068°43'1610.7
2018-May-16 02:26N 17°27' E 068°55'510.8
2018-May-16 02:00N 17°23' E 068°58'510.9
2018-May-16 01:30N 17°19' E 069°02'610.9
2018-May-16 00:58N 17°15' E 069°07'510.9
2018-May-16 00:30N 17°12' E 069°10'2511.0
2018-May-15 22:12N 16°54' E 069°29'410.9
2018-May-15 21:52N 16°51' E 069°32'411.0
2018-May-15 21:29N 16°48' E 069°35'511.2
2018-May-15 21:00N 16°44' E 069°39'611.3
2018-May-15 20:28N 16°40' E 069°43'511.3
2018-May-15 20:00N 16°36' E 069°47'611.6
2018-May-15 19:30N 16°32' E 069°51'1111.7
2018-May-15 18:35N 16°24' E 069°59'111.7
2018-May-15 18:30N 16°24' E 069°60'10311.9
2018-May-15 09:50N 15°11' E 071°16'  
Track history (hours):
 
Tides and Currents Weather Stations Pressure Air Temp Water Temp Dewpoint Dewpoint Depression Visibility Wind Speed Wind Dir Waves Ship Positions

Hampton Bridge

Last reported at 2018-May-16 21:34 UTC. Time now 2018-May-25 18:55 UTC.
Position N 19°60' E 066°13'.
Warning: this ship's position is 8 days out of date.

Length 223 m; draft 12.1 m.

Type: Cargo ship. MMSI: 229373000.

Date/timePositionNaut miles runAvg speedWind from/ knotsBaromVisibWave heightAir tempDewpointWater temp
2018-May-16 21:34N 19°60' E 066°13'211.3
2018-May-16 21:25N 19°59' E 066°14'1711.4
2018-May-16 19:58N 19°47' E 066°27'611.4
2018-May-16 19:25N 19°43' E 066°32'611.5
2018-May-16 18:53N 19°38' E 066°36'511.8
2018-May-16 18:28N 19°35' E 066°40'1012.0
2018-May-16 17:40N 19°28' E 066°47'311.8
2018-May-16 17:22N 19°25' E 066°49'2311.7
2018-May-16 15:25N 19°09' E 067°06'611.6
2018-May-16 14:56N 19°05' E 067°11'511.6
2018-May-16 14:27N 19°02' E 067°15'611.7
2018-May-16 13:58N 18°58' E 067°19'611.7
2018-May-16 13:25N 18°53' E 067°24'911.6
2018-May-16 12:38N 18°47' E 067°31'111.4
2018-May-16 12:30N 18°45' E 067°32'6311.3
2018-May-16 06:56N 18°01' E 068°19'511.0
2018-May-16 06:29N 17°58' E 068°22'610.9
2018-May-16 05:54N 17°53' E 068°27'410.8
2018-May-16 05:29N 17°50' E 068°30'510.9
2018-May-16 05:00N 17°46' E 068°34'510.7
2018-May-16 04:30N 17°42' E 068°38'610.7
2018-May-16 03:54N 17°38' E 068°43'1610.7
2018-May-16 02:26N 17°27' E 068°55'510.8
2018-May-16 02:00N 17°23' E 068°58'510.9
2018-May-16 01:30N 17°19' E 069°02'610.9
2018-May-16 00:58N 17°15' E 069°07'510.9
2018-May-16 00:30N 17°12' E 069°10'2511.0
2018-May-15 22:12N 16°54' E 069°29'410.9
2018-May-15 21:52N 16°51' E 069°32'411.0
2018-May-15 21:29N 16°48' E 069°35'511.2
2018-May-15 21:00N 16°44' E 069°39'611.3
2018-May-15 20:28N 16°40' E 069°43'511.3
2018-May-15 20:00N 16°36' E 069°47'611.6
2018-May-15 19:30N 16°32' E 069°51'1111.7
2018-May-15 18:35N 16°24' E 069°59'111.7
2018-May-15 18:30N 16°24' E 069°60'10311.9
2018-May-15 09:50N 15°11' E 071°16'  

Dump ship's entire track history